createdAt,value
2019-04-26T00:03:41.296Z,17.40
2019-04-26T00:07:54.052Z,17.30
2019-04-26T00:12:18.865Z,17.20
2019-04-26T00:16:34.358Z,17.20
2019-04-26T00:20:44.916Z,17.10
2019-04-26T00:24:55.306Z,17.00
2019-04-26T00:29:06.007Z,16.90
2019-04-26T00:33:17.310Z,16.80
2019-04-26T00:37:27.649Z,16.80
2019-04-26T00:41:39.487Z,16.70
2019-04-26T00:45:52.723Z,16.60
2019-04-26T00:50:03.621Z,16.50
2019-04-26T00:54:16.420Z,16.40
2019-04-26T00:58:33.571Z,16.30
2019-04-26T01:02:45.980Z,16.20
2019-04-26T01:06:58.554Z,16.10
2019-04-26T01:11:11.678Z,16.00
2019-04-26T01:15:23.317Z,15.80
2019-04-26T01:19:37.621Z,15.70
2019-04-26T01:23:50.851Z,15.70
2019-04-26T01:28:02.499Z,15.60
2019-04-26T01:32:13.702Z,15.50
2019-04-26T01:36:25.154Z,15.50
2019-04-26T01:40:36.850Z,15.50
2019-04-26T01:44:57.476Z,15.40
2019-04-26T01:49:10.889Z,15.40
2019-04-26T01:53:22.555Z,15.30
2019-04-26T01:57:33.107Z,15.20
2019-04-26T02:02:01.188Z,15.10
2019-04-26T02:06:24.814Z,15.00
2019-04-26T02:10:26.629Z,15.00
2019-04-26T02:14:37.072Z,14.90
2019-04-26T02:18:47.528Z,14.80
2019-04-26T02:23:06.684Z,14.80
2019-04-26T02:27:26.156Z,14.70
2019-04-26T02:31:40.051Z,14.70
2019-04-26T02:35:50.386Z,14.60
2019-04-26T02:40:02.279Z,14.60
2019-04-26T02:44:13.986Z,14.50
2019-04-26T02:48:44.156Z,14.50
2019-04-26T02:53:14.278Z,14.40
2019-04-26T02:57:44.277Z,14.40
2019-04-26T03:01:57.771Z,14.40
2019-04-26T03:06:08.234Z,14.30
2019-04-26T03:10:26.281Z,14.20
2019-04-26T03:15:12.726Z,14.10
2019-04-26T03:19:20.776Z,13.90
2019-04-26T03:23:59.596Z,13.80
2019-04-26T03:28:28.257Z,13.80
2019-04-26T03:32:50.794Z,13.80
2019-04-26T03:37:36.546Z,13.70
2019-04-26T03:42:12.521Z,13.60
2019-04-26T03:46:30.509Z,13.50
2019-04-26T03:50:49.945Z,13.30
2019-04-26T03:55:22.015Z,13.20
2019-04-26T03:59:54.672Z,13.20
2019-04-26T04:04:26.089Z,13.20
2019-04-26T04:08:40.747Z,13.20
2019-04-26T04:13:44.480Z,13.40
2019-04-26T04:17:59.187Z,13.60
2019-04-26T04:22:18.337Z,14.10
2019-04-26T04:26:34.553Z,14.40
2019-04-26T04:31:01.462Z,14.70
2019-04-26T04:35:13.418Z,14.80
2019-04-26T04:39:38.669Z,15.00
2019-04-26T04:44:11.665Z,15.20
2019-04-26T04:48:33.563Z,15.40
2019-04-26T04:52:52.747Z,15.80
2019-04-26T04:57:31.685Z,16.20
2019-04-26T05:01:59.452Z,16.40
2019-04-26T05:06:23.421Z,16.70
2019-04-26T05:10:47.625Z,16.90
2019-04-26T05:15:07.640Z,16.80
2019-04-26T05:19:45.850Z,16.80
2019-04-26T05:24:20.854Z,16.90
2019-04-26T05:28:46.171Z,17.00
2019-04-26T05:33:08.052Z,17.10
2019-04-26T05:37:26.718Z,17.10
2019-04-26T05:42:00.994Z,17.10
2019-04-26T05:46:25.249Z,17.10
2019-04-26T05:51:15.351Z,17.30
2019-04-26T05:55:42.448Z,17.50
2019-04-26T06:00:03.405Z,17.50
2019-04-26T06:04:52.364Z,17.40
2019-04-26T06:09:20.219Z,17.50
2019-04-26T06:13:45.336Z,17.80
2019-04-26T06:18:32.155Z,18.20
2019-04-26T06:23:20.052Z,17.80
2019-04-26T06:27:42.429Z,17.70
2019-04-26T06:32:31.299Z,17.80
2019-04-26T06:37:00.747Z,17.90
2019-04-26T06:41:21.954Z,18.20
2019-04-26T06:46:05.676Z,18.60
2019-04-26T06:50:21.542Z,18.80
2019-04-26T06:54:56.250Z,18.80
2019-04-26T06:59:45.857Z,19.10
2019-04-26T07:04:17.127Z,19.30
2019-04-26T07:08:57.641Z,19.50
2019-04-26T07:13:22.916Z,19.70
2019-04-26T07:17:56.037Z,19.60
2019-04-26T07:22:34.821Z,19.80
2019-04-26T07:27:11.361Z,20.10
2019-04-26T07:31:47.397Z,20.00
2019-04-26T07:36:12.019Z,19.90
2019-04-26T07:40:36.879Z,19.60
2019-04-26T07:45:25.182Z,19.60
2019-04-26T07:50:07.396Z,19.60
2019-04-26T07:54:35.798Z,20.20
2019-04-26T07:59:08.778Z,20.30
2019-04-26T08:03:36.748Z,20.60
2019-04-26T08:07:50.243Z,20.80
2019-04-26T08:12:05.955Z,20.40
2019-04-26T08:16:33.282Z,20.20
2019-04-26T08:20:54.271Z,20.40
2019-04-26T08:25:08.194Z,20.80
2019-04-26T08:29:22.123Z,20.60
2019-04-26T08:33:48.986Z,21.10
2019-04-26T08:38:00.209Z,21.40
2019-04-26T08:42:20.093Z,21.90
2019-04-26T08:46:37.233Z,22.60
2019-04-26T08:50:54.503Z,22.70
2019-04-26T08:55:07.464Z,22.60
2019-04-26T08:59:26.545Z,22.70
2019-04-26T09:03:42.780Z,22.50
2019-04-26T09:07:58.925Z,22.70
2019-04-26T09:12:22.470Z,22.80
2019-04-26T09:16:25.886Z,23.40
2019-04-26T09:20:38.570Z,23.30
2019-04-26T09:24:55.032Z,22.80
2019-04-26T09:29:09.079Z,22.40
2019-04-26T09:33:24.510Z,22.50
2019-04-26T09:37:36.623Z,23.30
2019-04-26T09:41:50.131Z,23.20
2019-04-26T09:46:15.481Z,23.10
2019-04-26T09:50:48.174Z,23.30
2019-04-26T09:54:59.816Z,23.10
2019-04-26T09:59:10.157Z,22.90
2019-04-26T10:03:21.574Z,23.10
2019-04-26T10:07:37.119Z,23.20
2019-04-26T10:11:49.920Z,23.20
2019-04-26T10:16:06.169Z,23.80
2019-04-26T10:20:16.637Z,24.00
2019-04-26T10:24:27.037Z,23.80
2019-04-26T10:28:42.068Z,23.90
2019-04-26T10:32:54.083Z,23.70
2019-04-26T10:37:07.910Z,23.70
2019-04-26T10:41:18.296Z,23.90
2019-04-26T10:45:28.972Z,24.10
2019-04-26T10:49:43.539Z,24.40
2019-04-26T10:53:55.750Z,24.40
2019-04-26T10:58:12.048Z,24.30
2019-04-26T11:02:26.322Z,24.30
2019-04-26T11:06:36.837Z,24.40
2019-04-26T11:10:49.081Z,24.20
2019-04-26T11:14:59.673Z,24.00
2019-04-26T11:19:10.349Z,23.80
2019-04-26T11:23:20.792Z,23.90
2019-04-26T11:27:31.141Z,23.80
2019-04-26T11:31:42.056Z,23.90
2019-04-26T11:35:52.500Z,23.50
2019-04-26T11:40:03.173Z,23.80
2019-04-26T11:44:14.964Z,24.00
2019-04-26T11:48:28.951Z,24.20
2019-04-26T11:52:38.290Z,24.20
2019-04-26T11:56:50.454Z,24.40
2019-04-26T12:01:05.807Z,24.40
2019-04-26T12:05:20.404Z,24.40
2019-04-26T12:09:42.900Z,24.00
2019-04-26T12:13:55.346Z,23.50
2019-04-26T12:18:09.643Z,23.20
2019-04-26T12:22:19.764Z,23.20
2019-04-26T12:26:42.369Z,23.10
2019-04-26T12:30:54.130Z,23.20
2019-04-26T12:35:02.665Z,23.00
2019-04-26T12:39:15.471Z,22.90
2019-04-26T12:43:26.241Z,22.90
2019-04-26T12:47:40.005Z,22.70
2019-04-26T12:51:52.122Z,22.70
2019-04-26T12:56:05.144Z,22.90
2019-04-26T13:00:18.675Z,23.00
2019-04-26T13:04:35.909Z,23.00
2019-04-26T13:08:43.289Z,22.60
2019-04-26T13:13:07.329Z,22.70
2019-04-26T13:17:22.297Z,22.90
2019-04-26T13:21:37.225Z,22.80
2019-04-26T13:25:48.170Z,22.80
2019-04-26T13:30:02.371Z,22.60
2019-04-26T13:34:12.906Z,22.60
2019-04-26T13:38:23.255Z,22.50
2019-04-26T13:42:37.147Z,22.30
2019-04-26T13:46:49.086Z,22.30
2019-04-26T13:51:07.277Z,22.30
2019-04-26T13:55:17.690Z,22.40
2019-04-26T13:59:31.693Z,22.30
2019-04-26T14:03:43.488Z,22.10
2019-04-26T14:07:55.040Z,21.90
2019-04-26T14:12:17.800Z,21.70
2019-04-26T14:16:21.246Z,21.40
2019-04-26T14:20:29.902Z,21.30
2019-04-26T14:24:47.690Z,21.10
2019-04-26T14:28:59.441Z,21.00
2019-04-26T14:33:11.252Z,20.70
2019-04-26T14:37:23.494Z,20.70
2019-04-26T14:41:33.913Z,20.40
2019-04-26T14:45:55.781Z,20.10
2019-04-26T14:50:13.126Z,20.00
2019-04-26T14:54:14.666Z,19.80
2019-04-26T14:58:30.292Z,19.60
2019-04-26T15:02:41.660Z,19.60
2019-04-26T15:06:58.202Z,19.50
2019-04-26T15:11:07.604Z,19.40
2019-04-26T15:15:18.741Z,19.40
2019-04-26T15:19:29.131Z,19.40
2019-04-26T15:23:39.504Z,19.30
2019-04-26T15:27:49.903Z,19.20
2019-04-26T15:32:00.806Z,18.80
2019-04-26T15:36:14.645Z,18.50
2019-04-26T15:40:31.900Z,18.30
2019-04-26T15:44:46.050Z,18.20
2019-04-26T15:49:05.116Z,18.20
2019-04-26T15:53:25.736Z,18.00
2019-04-26T15:57:36.844Z,18.10
2019-04-26T16:01:52.149Z,18.00
2019-04-26T16:06:07.168Z,18.00
2019-04-26T16:10:15.829Z,18.00
2019-04-26T16:14:31.143Z,17.70
2019-04-26T16:18:38.728Z,17.50
2019-04-26T16:22:49.368Z,17.20
2019-04-26T16:27:02.734Z,17.00
2019-04-26T16:31:32.190Z,16.90
2019-04-26T16:35:42.594Z,16.70
2019-04-26T16:39:55.092Z,16.60
2019-04-26T16:44:06.265Z,16.40
2019-04-26T16:48:17.420Z,16.20
2019-04-26T16:52:33.291Z,16.20
2019-04-26T16:56:43.868Z,16.10
2019-04-26T17:00:58.112Z,16.10
2019-04-26T17:05:28.848Z,16.00
2019-04-26T17:09:57.110Z,15.70
2019-04-26T17:14:04.378Z,15.60
2019-04-26T17:18:23.828Z,15.50
2019-04-26T17:23:04.148Z,15.50
2019-04-26T17:27:34.659Z,15.40
2019-04-26T17:31:52.838Z,15.30
2019-04-26T17:36:20.788Z,15.20
2019-04-26T17:40:36.483Z,15.10
2019-04-26T17:44:57.615Z,14.90
2019-04-26T17:49:13.724Z,14.90
2019-04-26T17:58:30.039Z,14.60
2019-04-26T18:02:52.123Z,14.40
2019-04-26T18:07:39.302Z,14.20
2019-04-26T18:11:51.126Z,14.10
2019-04-26T18:16:23.824Z,14.10
2019-04-26T18:20:53.928Z,14.00
2019-04-26T18:25:14.828Z,13.90
2019-04-26T18:29:29.362Z,13.80
2019-04-26T18:33:38.751Z,13.80
2019-04-26T18:37:50.081Z,13.70
2019-04-26T18:42:05.703Z,13.60
2019-04-26T18:46:18.981Z,13.50
2019-04-26T18:50:32.802Z,13.40
2019-04-26T18:54:58.469Z,13.30
2019-04-26T18:59:11.710Z,13.30
2019-04-26T19:03:24.736Z,13.10
2019-04-26T19:07:35.669Z,12.90
2019-04-26T19:11:48.802Z,12.60
2019-04-26T19:16:03.557Z,12.30
2019-04-26T19:20:15.898Z,12.10
2019-04-26T19:24:27.172Z,11.90
2019-04-26T19:28:39.941Z,11.70
2019-04-26T19:32:55.374Z,11.50
2019-04-26T19:37:05.675Z,11.50
2019-04-26T19:41:17.390Z,11.40
2019-04-26T19:45:33.956Z,11.40
2019-04-26T19:50:03.107Z,11.40
2019-04-26T19:54:32.382Z,11.40
2019-04-26T19:58:39.700Z,11.30
2019-04-26T20:02:50.135Z,11.30
2019-04-26T20:07:01.362Z,11.20
2019-04-26T20:11:18.574Z,11.20
2019-04-26T20:15:28.626Z,11.00
2019-04-26T20:19:37.775Z,10.80
2019-04-26T20:23:48.168Z,10.50
2019-04-26T20:27:59.744Z,10.30
2019-04-26T20:32:16.557Z,10.10
2019-04-26T20:36:29.169Z,10.00
2019-04-26T20:40:39.486Z,10.00
2019-04-26T20:44:53.199Z,10.10
2019-04-26T20:49:07.953Z,10.00
2019-04-26T20:53:21.561Z,10.00
2019-04-26T20:57:34.768Z,10.10
2019-04-26T21:01:46.692Z,10.10
2019-04-26T21:06:00.578Z,10.10
2019-04-26T21:10:14.546Z,10.10
2019-04-26T21:14:23.602Z,10.00
2019-04-26T21:18:40.018Z,10.00
2019-04-26T21:22:49.063Z,10.00
2019-04-26T21:27:18.050Z,9.80
2019-04-26T21:31:47.164Z,9.80
2019-04-26T21:36:15.958Z,9.80
2019-04-26T21:40:31.632Z,9.80
2019-04-26T21:44:44.598Z,9.80
2019-04-26T21:48:54.814Z,9.70
2019-04-26T21:53:07.018Z,9.70
2019-04-26T21:57:18.372Z,9.80
2019-04-26T22:01:29.658Z,9.70
2019-04-26T22:05:49.741Z,9.80
2019-04-26T22:09:58.594Z,9.80
2019-04-26T22:14:13.240Z,9.70
2019-04-26T22:18:27.551Z,9.70
2019-04-26T22:22:41.519Z,9.70
2019-04-26T22:26:53.145Z,9.70
2019-04-26T22:31:08.496Z,9.60
2019-04-26T22:35:21.430Z,9.60
2019-04-26T22:39:32.725Z,9.60
2019-04-26T22:43:44.733Z,9.60
2019-04-26T22:48:19.411Z,9.60
2019-04-26T22:52:25.473Z,9.60
2019-04-26T22:56:37.026Z,9.60
2019-04-26T23:00:49.744Z,9.60
2019-04-26T23:05:02.092Z,9.60
2019-04-26T23:09:16.872Z,9.70
2019-04-26T23:13:33.946Z,9.70
2019-04-26T23:17:46.514Z,9.60
2019-04-26T23:22:03.881Z,9.60
2019-04-26T23:26:14.495Z,9.70
2019-04-26T23:30:27.685Z,9.70
2019-04-26T23:34:40.939Z,9.70
2019-04-26T23:38:53.194Z,9.70
2019-04-26T23:43:06.750Z,9.70
2019-04-26T23:47:22.542Z,9.80
2019-04-26T23:51:30.559Z,9.70
2019-04-26T23:55:45.118Z,9.70
2019-04-26T23:59:59.959Z,9.70
